sensor_id;sensor_type;location;lat;lon;timestamp;temperature;humidity
52187;DHT22;38161;53.020;6.598;2023-07-30T00:01:12;16.80;99.90
52187;DHT22;38161;53.020;6.598;2023-07-30T00:03:38;16.70;99.90
52187;DHT22;38161;53.020;6.598;2023-07-30T00:06:04;16.70;99.90
52187;DHT22;38161;53.020;6.598;2023-07-30T00:08:30;16.70;99.90
52187;DHT22;38161;53.020;6.598;2023-07-30T00:10:59;16.60;99.90
52187;DHT22;38161;53.020;6.598;2023-07-30T00:13:25;16.70;99.90
52187;DHT22;38161;53.020;6.598;2023-07-30T00:15:51;16.60;99.90
52187;DHT22;38161;53.020;6.598;2023-07-30T00:18:17;16.60;99.90
52187;DHT22;38161;53.020;6.598;2023-07-30T00:20:43;16.60;99.90
52187;DHT22;38161;53.020;6.598;2023-07-30T00:23:11;16.60;99.90
52187;DHT22;38161;53.020;6.598;2023-07-30T00:25:40;16.60;99.90
52187;DHT22;38161;53.020;6.598;2023-07-30T00:28:06;16.50;99.90
52187;DHT22;38161;53.020;6.598;2023-07-30T00:30:32;16.50;99.90
52187;DHT22;38161;53.020;6.598;2023-07-30T00:32:58;16.50;99.90
52187;DHT22;38161;53.020;6.598;2023-07-30T00:35:24;16.50;99.90
52187;DHT22;38161;53.020;6.598;2023-07-30T00:37:50;16.50;99.90
52187;DHT22;38161;53.020;6.598;2023-07-30T00:40:17;16.40;99.90
52187;DHT22;38161;53.020;6.598;2023-07-30T00:42:44;16.40;99.90
52187;DHT22;38161;53.020;6.598;2023-07-30T00:45:10;16.40;99.90
52187;DHT22;38161;53.020;6.598;2023-07-30T00:47:37;16.30;99.90
52187;DHT22;38161;53.020;6.598;2023-07-30T00:50:05;16.30;99.90
52187;DHT22;38161;53.020;6.598;2023-07-30T00:52:32;16.30;99.90
52187;DHT22;38161;53.020;6.598;2023-07-30T00:55:00;16.20;99.90
52187;DHT22;38161;53.020;6.598;2023-07-30T00:57:27;16.20;99.90
52187;DHT22;38161;53.020;6.598;2023-07-30T00:59:54;16.20;99.90
52187;DHT22;38161;53.020;6.598;2023-07-30T01:02:21;16.20;99.90
52187;DHT22;38161;53.020;6.598;2023-07-30T01:04:47;16.20;99.90
52187;DHT22;38161;53.020;6.598;2023-07-30T01:07:13;16.10;99.90
52187;DHT22;38161;53.020;6.598;2023-07-30T01:09:39;16.10;99.90
52187;DHT22;38161;53.020;6.598;2023-07-30T01:12:05;16.20;99.90
52187;DHT22;38161;53.020;6.598;2023-07-30T01:14:33;16.10;99.90
52187;DHT22;38161;53.020;6.598;2023-07-30T01:16:59;16.10;99.90
52187;DHT22;38161;53.020;6.598;2023-07-30T01:19:25;16.10;99.90
52187;DHT22;38161;53.020;6.598;2023-07-30T01:21:51;16.10;99.90
52187;DHT22;38161;53.020;6.598;2023-07-30T01:24:17;16.10;99.90
52187;DHT22;38161;53.020;6.598;2023-07-30T01:26:45;16.00;99.90
52187;DHT22;38161;53.020;6.598;2023-07-30T01:29:16;16.10;99.90
52187;DHT22;38161;53.020;6.598;2023-07-30T01:31:52;16.10;99.90
52187;DHT22;38161;53.020;6.598;2023-07-30T01:34:21;16.00;99.90
52187;DHT22;38161;53.020;6.598;2023-07-30T01:36:49;16.00;99.90
52187;DHT22;38161;53.020;6.598;2023-07-30T01:39:15;16.00;99.90
52187;DHT22;38161;53.020;6.598;2023-07-30T01:41:42;16.00;99.90
52187;DHT22;38161;53.020;6.598;2023-07-30T01:44:08;16.00;99.90
52187;DHT22;38161;53.020;6.598;2023-07-30T01:46:34;16.00;99.90
52187;DHT22;38161;53.020;6.598;2023-07-30T01:49:00;15.90;99.90
52187;DHT22;38161;53.020;6.598;2023-07-30T01:51:26;15.90;99.90
52187;DHT22;38161;53.020;6.598;2023-07-30T01:53:52;15.90;99.90
52187;DHT22;38161;53.020;6.598;2023-07-30T01:56:18;15.90;99.90
52187;DHT22;38161;53.020;6.598;2023-07-30T01:58:44;15.90;99.90
52187;DHT22;38161;53.020;6.598;2023-07-30T02:01:10;15.80;99.90
52187;DHT22;38161;53.020;6.598;2023-07-30T02:03:36;15.80;99.90
52187;DHT22;38161;53.020;6.598;2023-07-30T02:06:02;15.80;99.90
52187;DHT22;38161;53.020;6.598;2023-07-30T02:08:28;15.80;99.90
52187;DHT22;38161;53.020;6.598;2023-07-30T02:10:58;15.80;99.90
52187;DHT22;38161;53.020;6.598;2023-07-30T02:13:24;15.80;99.90
52187;DHT22;38161;53.020;6.598;2023-07-30T02:15:51;15.80;99.90
52187;DHT22;38161;53.020;6.598;2023-07-30T02:18:17;15.80;99.90
52187;DHT22;38161;53.020;6.598;2023-07-30T02:20:43;15.70;99.90
52187;DHT22;38161;53.020;6.598;2023-07-30T02:23:10;15.70;99.90
52187;DHT22;38161;53.020;6.598;2023-07-30T02:25:37;15.70;99.90
52187;DHT22;38161;53.020;6.598;2023-07-30T02:28:03;15.60;99.90
52187;DHT22;38161;53.020;6.598;2023-07-30T02:30:29;15.60;99.90
52187;DHT22;38161;53.020;6.598;2023-07-30T02:32:55;15.60;99.90
52187;DHT22;38161;53.020;6.598;2023-07-30T02:35:21;15.60;99.90
52187;DHT22;38161;53.020;6.598;2023-07-30T02:37:48;15.60;99.90
52187;DHT22;38161;53.020;6.598;2023-07-30T02:40:15;15.50;99.90
52187;DHT22;38161;53.020;6.598;2023-07-30T02:42:41;15.50;99.90
52187;DHT22;38161;53.020;6.598;2023-07-30T02:45:07;15.50;99.90
52187;DHT22;38161;53.020;6.598;2023-07-30T02:47:34;15.50;99.90
52187;DHT22;38161;53.020;6.598;2023-07-30T02:50:01;15.50;99.90
52187;DHT22;38161;53.020;6.598;2023-07-30T02:52:28;15.50;99.90
52187;DHT22;38161;53.020;6.598;2023-07-30T02:54:53;15.50;99.90
52187;DHT22;38161;53.020;6.598;2023-07-30T02:57:19;15.50;99.90
52187;DHT22;38161;53.020;6.598;2023-07-30T02:59:45;15.50;99.90
52187;DHT22;38161;53.020;6.598;2023-07-30T03:02:11;15.50;99.90
52187;DHT22;38161;53.020;6.598;2023-07-30T03:04:37;15.50;99.90
52187;DHT22;38161;53.020;6.598;2023-07-30T03:07:04;15.50;99.90
52187;DHT22;38161;53.020;6.598;2023-07-30T03:09:30;15.50;99.90
52187;DHT22;38161;53.020;6.598;2023-07-30T03:11:57;15.50;99.90
52187;DHT22;38161;53.020;6.598;2023-07-30T03:14:23;15.50;99.90
52187;DHT22;38161;53.020;6.598;2023-07-30T03:16:49;15.40;99.90
52187;DHT22;38161;53.020;6.598;2023-07-30T03:19:16;15.40;99.90
52187;DHT22;38161;53.020;6.598;2023-07-30T03:21:42;15.40;99.90
52187;DHT22;38161;53.020;6.598;2023-07-30T03:24:08;15.40;99.90
52187;DHT22;38161;53.020;6.598;2023-07-30T03:26:34;15.50;99.90
52187;DHT22;38161;53.020;6.598;2023-07-30T03:29:00;15.40;99.90
52187;DHT22;38161;53.020;6.598;2023-07-30T03:31:26;15.40;99.90
52187;DHT22;38161;53.020;6.598;2023-07-30T03:33:54;15.40;99.90
52187;DHT22;38161;53.020;6.598;2023-07-30T03:36:20;15.40;99.90
52187;DHT22;38161;53.020;6.598;2023-07-30T03:38:46;15.40;99.90
52187;DHT22;38161;53.020;6.598;2023-07-30T03:41:12;15.40;99.90
52187;DHT22;38161;53.020;6.598;2023-07-30T03:43:38;15.40;99.90
52187;DHT22;38161;53.020;6.598;2023-07-30T03:46:04;15.40;99.90
52187;DHT22;38161;53.020;6.598;2023-07-30T03:48:30;15.40;99.90
52187;DHT22;38161;53.020;6.598;2023-07-30T03:50:56;15.40;99.90
52187;DHT22;38161;53.020;6.598;2023-07-30T03:53:23;15.40;99.90
52187;DHT22;38161;53.020;6.598;2023-07-30T03:55:49;15.40;99.90
52187;DHT22;38161;53.020;6.598;2023-07-30T03:58:15;15.40;99.90
52187;DHT22;38161;53.020;6.598;2023-07-30T04:00:44;15.30;99.90
52187;DHT22;38161;53.020;6.598;2023-07-30T04:03:11;15.30;99.90
52187;DHT22;38161;53.020;6.598;2023-07-30T04:05:37;15.30;99.90
52187;DHT22;38161;53.020;6.598;2023-07-30T04:08:03;15.30;99.90
52187;DHT22;38161;53.020;6.598;2023-07-30T04:10:31;15.20;99.90
52187;DHT22;38161;53.020;6.598;2023-07-30T04:12:58;15.20;99.90
52187;DHT22;38161;53.020;6.598;2023-07-30T04:15:26;15.20;99.90
52187;DHT22;38161;53.020;6.598;2023-07-30T04:17:52;15.20;99.90
52187;DHT22;38161;53.020;6.598;2023-07-30T04:20:18;15.10;99.90
52187;DHT22;38161;53.020;6.598;2023-07-30T04:22:44;15.10;99.90
52187;DHT22;38161;53.020;6.598;2023-07-30T04:25:10;15.10;99.90
52187;DHT22;38161;53.020;6.598;2023-07-30T04:27:37;15.10;99.90
52187;DHT22;38161;53.020;6.598;2023-07-30T04:30:04;15.10;99.90
52187;DHT22;38161;53.020;6.598;2023-07-30T04:32:31;15.10;99.90
52187;DHT22;38161;53.020;6.598;2023-07-30T04:34:57;15.10;99.90
52187;DHT22;38161;53.020;6.598;2023-07-30T04:37:23;15.10;99.90
52187;DHT22;38161;53.020;6.598;2023-07-30T04:39:49;15.10;99.90
52187;DHT22;38161;53.020;6.598;2023-07-30T04:42:16;15.10;99.90
52187;DHT22;38161;53.020;6.598;2023-07-30T04:44:43;15.00;99.90
52187;DHT22;38161;53.020;6.598;2023-07-30T04:47:10;15.10;99.90
52187;DHT22;38161;53.020;6.598;2023-07-30T04:49:36;15.10;99.90
52187;DHT22;38161;53.020;6.598;2023-07-30T04:52:07;15.10;99.90
52187;DHT22;38161;53.020;6.598;2023-07-30T04:54:34;15.10;99.90
52187;DHT22;38161;53.020;6.598;2023-07-30T04:57:02;15.20;99.90
52187;DHT22;38161;53.020;6.598;2023-07-30T04:59:29;15.20;99.90
52187;DHT22;38161;53.020;6.598;2023-07-30T05:01:55;15.30;99.90
52187;DHT22;38161;53.020;6.598;2023-07-30T05:04:21;15.30;99.90
52187;DHT22;38161;53.020;6.598;2023-07-30T05:06:47;15.30;99.90
52187;DHT22;38161;53.020;6.598;2023-07-30T05:09:13;15.30;99.90
52187;DHT22;38161;53.020;6.598;2023-07-30T05:11:40;15.40;99.90
52187;DHT22;38161;53.020;6.598;2023-07-30T05:14:07;15.40;99.90
52187;DHT22;38161;53.020;6.598;2023-07-30T05:16:33;15.50;99.90
52187;DHT22;38161;53.020;6.598;2023-07-30T05:18:59;15.50;99.90
52187;DHT22;38161;53.020;6.598;2023-07-30T05:21:25;15.50;99.90
52187;DHT22;38161;53.020;6.598;2023-07-30T05:23:51;15.50;99.90
52187;DHT22;38161;53.020;6.598;2023-07-30T05:26:17;15.50;99.90
52187;DHT22;38161;53.020;6.598;2023-07-30T05:28:43;15.60;99.90
52187;DHT22;38161;53.020;6.598;2023-07-30T05:31:09;15.60;99.90
52187;DHT22;38161;53.020;6.598;2023-07-30T05:33:35;15.70;99.90
52187;DHT22;38161;53.020;6.598;2023-07-30T05:36:01;15.70;99.90
52187;DHT22;38161;53.020;6.598;2023-07-30T05:38:27;15.70;99.90
52187;DHT22;38161;53.020;6.598;2023-07-30T05:40:53;15.80;99.90
52187;DHT22;38161;53.020;6.598;2023-07-30T05:43:20;15.80;99.90
52187;DHT22;38161;53.020;6.598;2023-07-30T05:45:46;15.80;99.90
52187;DHT22;38161;53.020;6.598;2023-07-30T05:48:12;15.80;99.90
52187;DHT22;38161;53.020;6.598;2023-07-30T05:50:38;15.90;99.90
52187;DHT22;38161;53.020;6.598;2023-07-30T05:53:05;15.90;99.90
52187;DHT22;38161;53.020;6.598;2023-07-30T05:55:31;15.90;99.90
52187;DHT22;38161;53.020;6.598;2023-07-30T05:57:58;15.90;99.90
52187;DHT22;38161;53.020;6.598;2023-07-30T06:00:24;16.00;99.90
52187;DHT22;38161;53.020;6.598;2023-07-30T06:02:50;16.00;99.90
52187;DHT22;38161;53.020;6.598;2023-07-30T06:05:16;16.00;99.90
52187;DHT22;38161;53.020;6.598;2023-07-30T06:07:42;16.10;99.90
52187;DHT22;38161;53.020;6.598;2023-07-30T06:10:08;16.10;99.90
52187;DHT22;38161;53.020;6.598;2023-07-30T06:12:34;16.10;99.90
52187;DHT22;38161;53.020;6.598;2023-07-30T06:15:00;16.10;99.90
52187;DHT22;38161;53.020;6.598;2023-07-30T06:17:26;16.20;99.90
52187;DHT22;38161;53.020;6.598;2023-07-30T06:19:52;16.20;99.90
52187;DHT22;38161;53.020;6.598;2023-07-30T06:22:18;16.20;99.90
52187;DHT22;38161;53.020;6.598;2023-07-30T06:24:44;16.20;99.90
52187;DHT22;38161;53.020;6.598;2023-07-30T06:27:14;16.20;99.90
52187;DHT22;38161;53.020;6.598;2023-07-30T06:29:45;16.10;99.90
52187;DHT22;38161;53.020;6.598;2023-07-30T06:32:11;16.40;99.90
52187;DHT22;38161;53.020;6.598;2023-07-30T06:34:37;16.10;99.90
52187;DHT22;38161;53.020;6.598;2023-07-30T06:37:03;16.20;99.90
52187;DHT22;38161;53.020;6.598;2023-07-30T06:43:19;16.20;99.90
52187;DHT22;38161;53.020;6.598;2023-07-30T06:45:45;16.30;99.90
52187;DHT22;38161;53.020;6.598;2023-07-30T06:48:11;16.30;99.90
52187;DHT22;38161;53.020;6.598;2023-07-30T06:50:37;16.40;99.90
52187;DHT22;38161;53.020;6.598;2023-07-30T06:53:03;16.40;99.90
52187;DHT22;38161;53.020;6.598;2023-07-30T06:55:29;16.50;99.90
52187;DHT22;38161;53.020;6.598;2023-07-30T06:57:56;16.50;99.90
52187;DHT22;38161;53.020;6.598;2023-07-30T07:00:22;16.60;99.90
52187;DHT22;38161;53.020;6.598;2023-07-30T07:02:48;16.70;99.90
52187;DHT22;38161;53.020;6.598;2023-07-30T07:05:15;16.80;99.90
52187;DHT22;38161;53.020;6.598;2023-07-30T07:07:41;16.90;99.90
52187;DHT22;38161;53.020;6.598;2023-07-30T07:10:07;16.90;99.90
52187;DHT22;38161;53.020;6.598;2023-07-30T07:12:33;17.00;99.90
52187;DHT22;38161;53.020;6.598;2023-07-30T07:14:59;17.00;99.90
52187;DHT22;38161;53.020;6.598;2023-07-30T07:17:28;17.00;99.90
52187;DHT22;38161;53.020;6.598;2023-07-30T07:19:53;17.10;99.90
52187;DHT22;38161;53.020;6.598;2023-07-30T07:22:19;17.10;99.90
52187;DHT22;38161;53.020;6.598;2023-07-30T07:24:45;17.10;99.90
52187;DHT22;38161;53.020;6.598;2023-07-30T07:27:14;17.10;99.90
52187;DHT22;38161;53.020;6.598;2023-07-30T07:29:40;17.10;99.90
52187;DHT22;38161;53.020;6.598;2023-07-30T07:32:06;17.10;99.90
52187;DHT22;38161;53.020;6.598;2023-07-30T07:34:32;17.10;99.90
52187;DHT22;38161;53.020;6.598;2023-07-30T07:36:58;17.10;99.90
52187;DHT22;38161;53.020;6.598;2023-07-30T07:39:24;17.20;99.90
52187;DHT22;38161;53.020;6.598;2023-07-30T07:41:50;17.20;99.90
52187;DHT22;38161;53.020;6.598;2023-07-30T07:44:18;17.30;99.90
52187;DHT22;38161;53.020;6.598;2023-07-30T07:46:44;17.40;99.90
52187;DHT22;38161;53.020;6.598;2023-07-30T07:49:10;17.40;99.90
52187;DHT22;38161;53.020;6.598;2023-07-30T07:51:36;17.50;99.90
52187;DHT22;38161;53.020;6.598;2023-07-30T07:54:02;17.50;99.90
52187;DHT22;38161;53.020;6.598;2023-07-30T07:56:30;17.60;99.90
52187;DHT22;38161;53.020;6.598;2023-07-30T07:58:57;17.80;99.90
52187;DHT22;38161;53.020;6.598;2023-07-30T08:01:23;17.90;99.90
52187;DHT22;38161;53.020;6.598;2023-07-30T08:03:50;17.90;99.90
52187;DHT22;38161;53.020;6.598;2023-07-30T08:06:19;17.90;99.90
52187;DHT22;38161;53.020;6.598;2023-07-30T08:08:45;18.10;99.90
52187;DHT22;38161;53.020;6.598;2023-07-30T08:11:11;18.10;99.90
52187;DHT22;38161;53.020;6.598;2023-07-30T08:13:38;18.20;99.90
52187;DHT22;38161;53.020;6.598;2023-07-30T08:16:04;18.20;99.90
52187;DHT22;38161;53.020;6.598;2023-07-30T08:18:30;18.20;99.90
52187;DHT22;38161;53.020;6.598;2023-07-30T08:20:56;18.20;99.90
52187;DHT22;38161;53.020;6.598;2023-07-30T08:23:22;18.10;99.90
52187;DHT22;38161;53.020;6.598;2023-07-30T08:25:49;18.00;99.90
52187;DHT22;38161;53.020;6.598;2023-07-30T08:28:15;17.80;99.90
52187;DHT22;38161;53.020;6.598;2023-07-30T08:30:42;17.60;99.90
52187;DHT22;38161;53.020;6.598;2023-07-30T08:33:10;17.40;99.90
52187;DHT22;38161;53.020;6.598;2023-07-30T08:35:36;17.20;99.90
52187;DHT22;38161;53.020;6.598;2023-07-30T08:38:02;17.10;99.90
52187;DHT22;38161;53.020;6.598;2023-07-30T08:40:29;16.90;99.90
52187;DHT22;38161;53.020;6.598;2023-07-30T08:42:55;16.80;99.90
52187;DHT22;38161;53.020;6.598;2023-07-30T08:45:21;16.70;99.90
52187;DHT22;38161;53.020;6.598;2023-07-30T08:47:48;16.70;99.90
52187;DHT22;38161;53.020;6.598;2023-07-30T08:50:17;16.60;99.90
52187;DHT22;38161;53.020;6.598;2023-07-30T08:52:43;16.60;99.90
52187;DHT22;38161;53.020;6.598;2023-07-30T08:55:10;16.60;99.90
52187;DHT22;38161;53.020;6.598;2023-07-30T08:57:37;16.50;99.90
52187;DHT22;38161;53.020;6.598;2023-07-30T09:00:11;16.50;99.90
52187;DHT22;38161;53.020;6.598;2023-07-30T09:02:48;16.40;99.90
52187;DHT22;38161;53.020;6.598;2023-07-30T09:05:15;16.40;99.90
52187;DHT22;38161;53.020;6.598;2023-07-30T09:07:42;16.30;99.90
52187;DHT22;38161;53.020;6.598;2023-07-30T09:10:08;16.30;99.90
52187;DHT22;38161;53.020;6.598;2023-07-30T09:12:35;16.30;99.90
52187;DHT22;38161;53.020;6.598;2023-07-30T09:15:06;16.40;99.90
52187;DHT22;38161;53.020;6.598;2023-07-30T09:17:34;16.40;99.90
52187;DHT22;38161;53.020;6.598;2023-07-30T09:20:02;16.40;99.90
52187;DHT22;38161;53.020;6.598;2023-07-30T09:22:34;16.40;99.90
52187;DHT22;38161;53.020;6.598;2023-07-30T09:25:04;16.40;99.90
52187;DHT22;38161;53.020;6.598;2023-07-30T09:27:32;16.40;99.90
52187;DHT22;38161;53.020;6.598;2023-07-30T09:30:00;16.40;99.90
52187;DHT22;38161;53.020;6.598;2023-07-30T09:32:31;16.40;99.90
52187;DHT22;38161;53.020;6.598;2023-07-30T09:35:19;16.20;99.90
52187;DHT22;38161;53.020;6.598;2023-07-30T09:37:45;16.20;99.90
52187;DHT22;38161;53.020;6.598;2023-07-30T09:40:15;16.10;99.90
52187;DHT22;38161;53.020;6.598;2023-07-30T09:42:50;16.10;99.90
52187;DHT22;38161;53.020;6.598;2023-07-30T09:45:24;16.10;99.90
52187;DHT22;38161;53.020;6.598;2023-07-30T09:47:52;16.10;99.90
52187;DHT22;38161;53.020;6.598;2023-07-30T09:50:24;16.10;99.90
52187;DHT22;38161;53.020;6.598;2023-07-30T09:52:50;16.00;99.90
52187;DHT22;38161;53.020;6.598;2023-07-30T09:55:16;16.10;99.90
52187;DHT22;38161;53.020;6.598;2023-07-30T09:57:47;16.10;99.90
52187;DHT22;38161;53.020;6.598;2023-07-30T10:00:13;16.10;99.90
52187;DHT22;38161;53.020;6.598;2023-07-30T10:02:41;16.10;99.90
52187;DHT22;38161;53.020;6.598;2023-07-30T10:05:18;16.00;99.90
52187;DHT22;38161;53.020;6.598;2023-07-30T10:08:02;16.00;99.90
52187;DHT22;38161;53.020;6.598;2023-07-30T10:10:32;16.00;99.90
52187;DHT22;38161;53.020;6.598;2023-07-30T10:13:02;16.00;99.90
52187;DHT22;38161;53.020;6.598;2023-07-30T10:15:29;16.00;99.90
52187;DHT22;38161;53.020;6.598;2023-07-30T10:17:57;16.00;99.90
52187;DHT22;38161;53.020;6.598;2023-07-30T10:20:27;16.00;99.90
52187;DHT22;38161;53.020;6.598;2023-07-30T10:22:59;16.10;99.90
52187;DHT22;38161;53.020;6.598;2023-07-30T10:25:42;16.20;99.90
52187;DHT22;38161;53.020;6.598;2023-07-30T10:31:00;16.40;99.90
52187;DHT22;38161;53.020;6.598;2023-07-30T10:36:11;16.90;99.90
52187;DHT22;38161;53.020;6.598;2023-07-30T10:38:37;17.00;99.90
52187;DHT22;38161;53.020;6.598;2023-07-30T10:41:14;17.30;99.90
52187;DHT22;38161;53.020;6.598;2023-07-30T10:43:47;17.50;99.90
52187;DHT22;38161;53.020;6.598;2023-07-30T10:46:16;17.80;99.90
52187;DHT22;38161;53.020;6.598;2023-07-30T10:48:44;17.90;99.90
52187;DHT22;38161;53.020;6.598;2023-07-30T10:51:17;18.10;99.90
52187;DHT22;38161;53.020;6.598;2023-07-30T10:53:47;18.20;99.90
52187;DHT22;38161;53.020;6.598;2023-07-30T10:56:21;18.40;99.90
52187;DHT22;38161;53.020;6.598;2023-07-30T10:58:54;18.60;99.90
52187;DHT22;38161;53.020;6.598;2023-07-30T11:01:23;18.80;99.90
52187;DHT22;38161;53.020;6.598;2023-07-30T11:03:50;18.90;99.90
52187;DHT22;38161;53.020;6.598;2023-07-30T11:06:26;19.00;99.90
52187;DHT22;38161;53.020;6.598;2023-07-30T11:08:52;19.10;99.90
52187;DHT22;38161;53.020;6.598;2023-07-30T11:11:18;19.30;99.90
52187;DHT22;38161;53.020;6.598;2023-07-30T11:13:46;19.40;99.90
52187;DHT22;38161;53.020;6.598;2023-07-30T11:16:13;19.40;99.90
52187;DHT22;38161;53.020;6.598;2023-07-30T11:18:40;19.30;99.90
52187;DHT22;38161;53.020;6.598;2023-07-30T11:21:11;19.20;99.90
52187;DHT22;38161;53.020;6.598;2023-07-30T11:23:39;19.10;99.90
52187;DHT22;38161;53.020;6.598;2023-07-30T11:26:08;19.00;99.90
52187;DHT22;38161;53.020;6.598;2023-07-30T11:28:36;19.00;99.90
52187;DHT22;38161;53.020;6.598;2023-07-30T11:31:23;19.00;99.90
52187;DHT22;38161;53.020;6.598;2023-07-30T11:33:52;19.10;99.90
52187;DHT22;38161;53.020;6.598;2023-07-30T11:36:20;19.20;99.90
52187;DHT22;38161;53.020;6.598;2023-07-30T11:38:47;19.30;99.90
52187;DHT22;38161;53.020;6.598;2023-07-30T11:41:14;19.40;99.90
52187;DHT22;38161;53.020;6.598;2023-07-30T11:43:42;19.50;99.90
52187;DHT22;38161;53.020;6.598;2023-07-30T11:46:16;19.60;99.90
52187;DHT22;38161;53.020;6.598;2023-07-30T11:48:46;19.70;99.90
52187;DHT22;38161;53.020;6.598;2023-07-30T11:51:25;19.70;99.90
52187;DHT22;38161;53.020;6.598;2023-07-30T11:56:21;19.80;99.90
52187;DHT22;38161;53.020;6.598;2023-07-30T11:58:48;19.90;99.90
52187;DHT22;38161;53.020;6.598;2023-07-30T12:01:16;20.10;99.90
52187;DHT22;38161;53.020;6.598;2023-07-30T12:03:42;20.30;99.90
52187;DHT22;38161;53.020;6.598;2023-07-30T12:06:12;20.30;99.90
52187;DHT22;38161;53.020;6.598;2023-07-30T12:08:38;20.10;99.90
52187;DHT22;38161;53.020;6.598;2023-07-30T12:11:08;20.00;99.90
52187;DHT22;38161;53.020;6.598;2023-07-30T12:13:42;19.70;99.90
52187;DHT22;38161;53.020;6.598;2023-07-30T12:16:11;19.50;99.90
52187;DHT22;38161;53.020;6.598;2023-07-30T12:18:38;19.40;99.90
52187;DHT22;38161;53.020;6.598;2023-07-30T12:21:06;19.50;99.90
52187;DHT22;38161;53.020;6.598;2023-07-30T12:23:37;19.50;99.90
52187;DHT22;38161;53.020;6.598;2023-07-30T12:26:04;19.40;99.90
52187;DHT22;38161;53.020;6.598;2023-07-30T12:28:34;19.30;99.90
52187;DHT22;38161;53.020;6.598;2023-07-30T12:31:00;19.10;99.90
52187;DHT22;38161;53.020;6.598;2023-07-30T12:33:26;19.10;99.90
52187;DHT22;38161;53.020;6.598;2023-07-30T12:35:53;19.20;99.90
52187;DHT22;38161;53.020;6.598;2023-07-30T12:38:18;19.30;99.90
52187;DHT22;38161;53.020;6.598;2023-07-30T12:40:44;19.50;99.90
52187;DHT22;38161;53.020;6.598;2023-07-30T12:43:10;19.50;99.90
52187;DHT22;38161;53.020;6.598;2023-07-30T12:45:36;19.50;99.90
52187;DHT22;38161;53.020;6.598;2023-07-30T12:48:05;19.30;99.90
52187;DHT22;38161;53.020;6.598;2023-07-30T12:50:37;19.10;99.90
52187;DHT22;38161;53.020;6.598;2023-07-30T12:53:04;18.90;99.90
52187;DHT22;38161;53.020;6.598;2023-07-30T12:55:30;18.80;99.90
52187;DHT22;38161;53.020;6.598;2023-07-30T12:57:57;18.70;99.90
52187;DHT22;38161;53.020;6.598;2023-07-30T13:00:22;18.50;99.90
52187;DHT22;38161;53.020;6.598;2023-07-30T13:02:49;18.40;99.90
52187;DHT22;38161;53.020;6.598;2023-07-30T13:05:21;18.20;99.90
52187;DHT22;38161;53.020;6.598;2023-07-30T13:07:58;18.10;99.90
52187;DHT22;38161;53.020;6.598;2023-07-30T13:10:24;18.00;99.90
52187;DHT22;38161;53.020;6.598;2023-07-30T13:12:53;17.90;99.90
52187;DHT22;38161;53.020;6.598;2023-07-30T13:15:18;17.80;99.90
52187;DHT22;38161;53.020;6.598;2023-07-30T13:17:45;17.90;99.90
52187;DHT22;38161;53.020;6.598;2023-07-30T13:20:11;17.90;99.90
52187;DHT22;38161;53.020;6.598;2023-07-30T13:22:37;17.90;99.90
52187;DHT22;38161;53.020;6.598;2023-07-30T13:25:03;17.90;99.90
52187;DHT22;38161;53.020;6.598;2023-07-30T13:27:30;17.90;99.90
52187;DHT22;38161;53.020;6.598;2023-07-30T13:29:56;17.90;99.90
52187;DHT22;38161;53.020;6.598;2023-07-30T13:32:22;18.00;99.90
52187;DHT22;38161;53.020;6.598;2023-07-30T13:34:48;18.00;99.90
52187;DHT22;38161;53.020;6.598;2023-07-30T13:37:14;18.10;99.90
52187;DHT22;38161;53.020;6.598;2023-07-30T13:39:40;18.30;99.90
52187;DHT22;38161;53.020;6.598;2023-07-30T13:42:06;18.40;99.90
52187;DHT22;38161;53.020;6.598;2023-07-30T13:44:32;18.50;99.90
52187;DHT22;38161;53.020;6.598;2023-07-30T13:46:58;18.70;99.90
52187;DHT22;38161;53.020;6.598;2023-07-30T13:49:24;18.90;99.90
52187;DHT22;38161;53.020;6.598;2023-07-30T13:51:50;19.00;99.90
52187;DHT22;38161;53.020;6.598;2023-07-30T13:54:16;19.10;99.90
52187;DHT22;38161;53.020;6.598;2023-07-30T13:56:41;19.20;99.90
52187;DHT22;38161;53.020;6.598;2023-07-30T13:59:08;19.20;99.90
52187;DHT22;38161;53.020;6.598;2023-07-30T14:01:33;19.20;99.90
52187;DHT22;38161;53.020;6.598;2023-07-30T14:03:59;19.10;99.90
52187;DHT22;38161;53.020;6.598;2023-07-30T14:06:25;19.10;99.90
52187;DHT22;38161;53.020;6.598;2023-07-30T14:08:52;19.10;99.90
52187;DHT22;38161;53.020;6.598;2023-07-30T14:11:18;19.10;99.90
52187;DHT22;38161;53.020;6.598;2023-07-30T14:13:44;19.10;99.90
52187;DHT22;38161;53.020;6.598;2023-07-30T14:16:10;19.10;99.90
52187;DHT22;38161;53.020;6.598;2023-07-30T14:18:37;19.10;99.90
52187;DHT22;38161;53.020;6.598;2023-07-30T14:21:04;19.10;99.90
52187;DHT22;38161;53.020;6.598;2023-07-30T14:23:30;19.10;99.90
52187;DHT22;38161;53.020;6.598;2023-07-30T14:25:56;19.20;99.90
52187;DHT22;38161;53.020;6.598;2023-07-30T14:28:23;19.20;99.90
52187;DHT22;38161;53.020;6.598;2023-07-30T14:30:49;19.10;99.90
52187;DHT22;38161;53.020;6.598;2023-07-30T14:33:15;19.10;99.90
52187;DHT22;38161;53.020;6.598;2023-07-30T14:35:41;19.10;99.90
52187;DHT22;38161;53.020;6.598;2023-07-30T14:38:07;19.10;99.90
52187;DHT22;38161;53.020;6.598;2023-07-30T14:40:33;19.20;99.90
52187;DHT22;38161;53.020;6.598;2023-07-30T14:42:59;19.30;99.90
52187;DHT22;38161;53.020;6.598;2023-07-30T14:45:25;19.30;99.90
52187;DHT22;38161;53.020;6.598;2023-07-30T14:47:51;19.40;99.90
52187;DHT22;38161;53.020;6.598;2023-07-30T14:50:17;19.40;99.90
52187;DHT22;38161;53.020;6.598;2023-07-30T14:52:43;19.20;99.90
52187;DHT22;38161;53.020;6.598;2023-07-30T14:55:09;19.10;99.90
52187;DHT22;38161;53.020;6.598;2023-07-30T14:57:35;19.00;99.90
52187;DHT22;38161;53.020;6.598;2023-07-30T15:00:02;19.00;99.90
52187;DHT22;38161;53.020;6.598;2023-07-30T15:02:28;19.00;99.90
52187;DHT22;38161;53.020;6.598;2023-07-30T15:05:01;18.90;99.90
52187;DHT22;38161;53.020;6.598;2023-07-30T15:07:34;18.90;99.90
52187;DHT22;38161;53.020;6.598;2023-07-30T15:10:00;18.80;99.90
52187;DHT22;38161;53.020;6.598;2023-07-30T15:12:26;18.70;99.90
52187;DHT22;38161;53.020;6.598;2023-07-30T15:14:52;18.70;99.90
52187;DHT22;38161;53.020;6.598;2023-07-30T15:17:18;18.60;99.90
52187;DHT22;38161;53.020;6.598;2023-07-30T15:19:44;18.50;99.90
52187;DHT22;38161;53.020;6.598;2023-07-30T15:22:12;18.50;99.90
52187;DHT22;38161;53.020;6.598;2023-07-30T15:24:38;18.50;99.90
52187;DHT22;38161;53.020;6.598;2023-07-30T15:27:07;18.40;99.90
52187;DHT22;38161;53.020;6.598;2023-07-30T15:29:33;18.40;99.90
52187;DHT22;38161;53.020;6.598;2023-07-30T15:32:01;18.40;99.90
52187;DHT22;38161;53.020;6.598;2023-07-30T15:34:27;18.40;99.90
52187;DHT22;38161;53.020;6.598;2023-07-30T15:36:53;18.40;99.90
52187;DHT22;38161;53.020;6.598;2023-07-30T15:39:20;18.40;99.90
52187;DHT22;38161;53.020;6.598;2023-07-30T15:41:46;18.40;99.90